createdAt,value
2018-12-29T00:01:42.543Z,3.67
2018-12-29T00:04:16.668Z,3.64
2018-12-29T00:06:49.661Z,3.63
2018-12-29T00:09:22.725Z,3.70
2018-12-29T00:11:55.814Z,3.68
2018-12-29T00:14:28.862Z,3.68
2018-12-29T00:17:01.477Z,3.67
2018-12-29T00:19:34.450Z,3.68
2018-12-29T00:22:08.503Z,3.73
2018-12-29T00:24:53.520Z,3.72
2018-12-29T00:27:44.272Z,3.68
2018-12-29T00:30:21.391Z,3.64
2018-12-29T00:32:54.270Z,3.68
2018-12-29T00:35:26.967Z,3.65
2018-12-29T00:37:59.945Z,3.68
2018-12-29T00:40:32.979Z,3.72
2018-12-29T00:43:06.905Z,3.71
2018-12-29T00:45:39.440Z,3.72
2018-12-29T00:48:12.112Z,3.70
2018-12-29T00:50:59.938Z,3.74
2018-12-29T00:53:32.796Z,3.75
2018-12-29T00:56:05.908Z,3.73
2018-12-29T00:58:38.780Z,3.75
2018-12-29T01:01:12.377Z,3.74
2018-12-29T01:03:44.995Z,3.73
2018-12-29T01:06:19.843Z,3.75
2018-12-29T01:08:56.854Z,3.76
2018-12-29T01:11:29.735Z,3.79
2018-12-29T01:14:02.492Z,3.79
2018-12-29T01:16:35.121Z,3.77
2018-12-29T01:19:14.093Z,3.79
2018-12-29T01:21:50.300Z,3.81
2018-12-29T01:24:23.298Z,3.84
2018-12-29T01:27:00.616Z,3.79
2018-12-29T01:29:34.289Z,3.80
2018-12-29T01:32:07.022Z,3.86
2018-12-29T01:34:41.007Z,3.80
2018-12-29T01:40:07.103Z,3.76
2018-12-29T01:42:40.089Z,3.79
2018-12-29T01:45:19.150Z,3.81
2018-12-29T01:47:53.817Z,3.79
2018-12-29T01:50:27.970Z,3.82
2018-12-29T01:53:03.356Z,3.80
2018-12-29T01:55:43.056Z,3.85
2018-12-29T01:58:15.979Z,3.82
2018-12-29T02:00:48.711Z,3.87
2018-12-29T02:03:22.116Z,3.88
2018-12-29T02:05:55.562Z,3.90
2018-12-29T02:08:31.414Z,3.88
2018-12-29T02:11:05.596Z,3.89
2018-12-29T02:13:38.271Z,3.89
2018-12-29T02:16:11.638Z,3.89
2018-12-29T02:18:48.979Z,3.88
2018-12-29T02:21:21.830Z,3.98
2018-12-29T02:23:54.689Z,3.97
2018-12-29T02:26:27.766Z,3.94
2018-12-29T02:29:01.324Z,3.94
2018-12-29T02:31:34.486Z,3.95
2018-12-29T02:34:07.736Z,3.95
2018-12-29T02:36:41.237Z,3.96
2018-12-29T02:39:13.835Z,3.99
2018-12-29T02:41:48.607Z,4.03
2018-12-29T02:44:25.475Z,4.02
2018-12-29T02:46:58.135Z,4.02
2018-12-29T02:49:36.845Z,3.99
2018-12-29T02:52:09.563Z,4.00
2018-12-29T02:54:42.188Z,4.03
2018-12-29T02:57:18.427Z,4.04
2018-12-29T02:59:50.928Z,4.01
2018-12-29T03:02:24.446Z,4.00
2018-12-29T03:04:57.418Z,4.01
2018-12-29T03:07:30.398Z,3.99
2018-12-29T03:10:03.434Z,4.02
2018-12-29T03:12:36.083Z,4.01
2018-12-29T03:15:08.953Z,4.06
2018-12-29T03:17:42.145Z,4.04
2018-12-29T03:20:16.831Z,4.07
2018-12-29T03:22:53.434Z,4.06
2018-12-29T03:25:26.618Z,4.04
2018-12-29T03:28:01.036Z,4.10
2018-12-29T03:30:33.651Z,4.07
2018-12-29T03:33:10.596Z,4.12
2018-12-29T03:35:43.710Z,4.09
2018-12-29T03:38:17.007Z,4.09
2018-12-29T03:40:49.796Z,4.10
2018-12-29T03:43:21.150Z,4.08
2018-12-29T03:45:53.825Z,4.10
2018-12-29T03:48:26.853Z,4.09
2018-12-29T03:51:06.266Z,4.10
2018-12-29T03:53:39.312Z,4.10
2018-12-29T03:56:12.057Z,4.10
2018-12-29T03:58:45.080Z,4.12
2018-12-29T04:01:18.193Z,4.14
2018-12-29T04:03:51.092Z,4.12
2018-12-29T04:06:23.531Z,4.17
2018-12-29T04:10:01.104Z,4.18
2018-12-29T04:12:39.895Z,4.17
2018-12-29T04:15:15.203Z,4.15
2018-12-29T04:17:47.567Z,4.16
2018-12-29T04:20:21.204Z,4.19
2018-12-29T04:22:53.666Z,4.17
2018-12-29T04:25:27.766Z,4.14
2018-12-29T04:28:01.237Z,4.11
2018-12-29T04:30:34.267Z,4.09
2018-12-29T04:33:08.224Z,4.14
2018-12-29T04:35:41.388Z,4.08
2018-12-29T04:38:14.770Z,4.09
2018-12-29T04:40:47.634Z,4.12
2018-12-29T04:43:20.689Z,4.14
2018-12-29T04:45:54.394Z,4.11
2018-12-29T04:48:27.332Z,4.15
2018-12-29T04:51:00.736Z,4.18
2018-12-29T04:53:34.733Z,4.17
2018-12-29T04:56:12.976Z,4.21
2018-12-29T04:58:49.930Z,4.14
2018-12-29T05:01:22.319Z,4.14
2018-12-29T05:03:55.143Z,4.12
2018-12-29T05:06:28.458Z,4.14
2018-12-29T05:09:08.869Z,4.20
2018-12-29T05:11:41.991Z,4.19
2018-12-29T05:14:14.886Z,4.22
2018-12-29T05:16:47.166Z,4.22
2018-12-29T05:19:20.596Z,4.22
2018-12-29T05:22:00.604Z,4.22
2018-12-29T05:24:33.866Z,4.25
2018-12-29T05:27:06.948Z,4.28
2018-12-29T05:29:43.878Z,4.33
2018-12-29T05:32:17.093Z,4.33
2018-12-29T05:34:50.092Z,4.30
2018-12-29T05:37:27.348Z,4.34
2018-12-29T05:40:00.371Z,4.30
2018-12-29T05:42:33.545Z,4.35
2018-12-29T05:45:07.087Z,4.36
2018-12-29T05:47:40.241Z,4.32
2018-12-29T05:50:13.374Z,4.28
2018-12-29T05:52:46.203Z,4.27
2018-12-29T05:55:20.014Z,4.29
2018-12-29T05:58:17.394Z,4.35
2018-12-29T06:00:50.703Z,4.32
2018-12-29T06:03:23.454Z,4.34
2018-12-29T06:05:56.696Z,4.31
2018-12-29T06:08:29.554Z,4.37
2018-12-29T06:11:02.609Z,4.41
2018-12-29T06:13:35.517Z,4.42
2018-12-29T06:16:08.898Z,4.37
2018-12-29T06:21:23.032Z,4.43
2018-12-29T06:23:57.010Z,4.45
2018-12-29T06:26:29.976Z,4.47
2018-12-29T06:29:04.174Z,4.43
2018-12-29T06:31:46.204Z,4.44
2018-12-29T06:34:22.986Z,4.53
2018-12-29T06:36:56.304Z,4.52
2018-12-29T06:39:29.585Z,4.49
2018-12-29T06:42:04.352Z,4.57
2018-12-29T06:44:40.098Z,4.53
2018-12-29T06:47:12.778Z,4.55
2018-12-29T07:04:18.844Z,4.61
2018-12-29T07:06:51.431Z,4.61
2018-12-29T07:09:29.466Z,4.59
2018-12-29T07:12:02.502Z,4.56
2018-12-29T07:14:36.770Z,4.60
2018-12-29T07:17:17.296Z,4.65
2018-12-29T07:19:54.434Z,4.67
2018-12-29T07:22:39.541Z,4.62
2018-12-29T07:25:17.970Z,4.68
2018-12-29T07:27:51.329Z,4.72
2018-12-29T07:30:25.257Z,4.71
2018-12-29T07:33:00.258Z,4.72
2018-12-29T07:35:38.777Z,4.76
2018-12-29T07:38:12.776Z,4.72
2018-12-29T07:40:46.296Z,4.75
2018-12-29T07:43:24.373Z,4.78
2018-12-29T07:46:04.223Z,4.78
2018-12-29T07:48:37.381Z,4.82
2018-12-29T07:51:11.193Z,4.88
2018-12-29T07:53:44.785Z,4.84
2018-12-29T07:56:17.528Z,4.90
2018-12-29T07:58:50.662Z,4.91
2018-12-29T08:01:23.790Z,4.96
2018-12-29T08:03:56.195Z,5.01
2018-12-29T08:06:29.355Z,5.01
2018-12-29T08:11:39.869Z,4.96
2018-12-29T08:14:14.825Z,5.02
2018-12-29T08:16:47.627Z,5.07
2018-12-29T08:19:20.153Z,5.13
2018-12-29T08:21:53.849Z,5.13
2018-12-29T08:24:27.177Z,5.12
2018-12-29T08:27:00.065Z,5.15
2018-12-29T08:29:33.241Z,5.17
2018-12-29T08:32:06.125Z,5.18
2018-12-29T08:34:39.163Z,5.22
2018-12-29T08:37:15.885Z,5.18
2018-12-29T08:39:49.152Z,5.18
2018-12-29T08:42:21.973Z,5.24
2018-12-29T08:44:55.141Z,5.31
2018-12-29T08:47:28.603Z,5.29
2018-12-29T08:50:02.122Z,5.32
2018-12-29T08:52:34.913Z,5.33
2018-12-29T08:55:11.802Z,5.34
2018-12-29T08:57:44.814Z,5.38
2018-12-29T09:00:17.849Z,5.38
2018-12-29T09:02:54.318Z,5.35
2018-12-29T09:05:27.271Z,5.35
2018-12-29T09:08:00.057Z,5.44
2018-12-29T09:10:33.163Z,5.51
2018-12-29T09:13:05.780Z,5.45
2018-12-29T09:15:39.293Z,5.52
2018-12-29T09:18:12.292Z,5.50
2018-12-29T09:20:46.703Z,5.56
2018-12-29T09:23:19.508Z,5.56
2018-12-29T09:25:52.428Z,5.66
2018-12-29T09:28:25.395Z,5.64
2018-12-29T09:30:58.600Z,5.66
2018-12-29T09:33:31.301Z,5.69
2018-12-29T09:36:04.769Z,5.69
2018-12-29T09:38:38.014Z,5.72
2018-12-29T09:41:10.890Z,5.82
2018-12-29T09:43:44.139Z,5.81
2018-12-29T09:46:17.273Z,5.83
2018-12-29T09:48:50.714Z,5.90
2018-12-29T09:51:23.047Z,5.93
2018-12-29T09:53:56.379Z,6.03
2018-12-29T09:56:28.980Z,6.01
2018-12-29T09:59:01.917Z,6.05
2018-12-29T10:01:34.321Z,6.09
2018-12-29T10:04:07.641Z,6.14
2018-12-29T10:06:41.978Z,6.13
2018-12-29T10:09:15.338Z,6.16
2018-12-29T10:11:48.484Z,6.20
2018-12-29T10:14:21.434Z,6.24
2018-12-29T10:16:54.841Z,6.20
2018-12-29T10:19:27.485Z,6.27
2018-12-29T10:22:01.120Z,6.26
2018-12-29T10:24:33.609Z,6.30
2018-12-29T10:27:06.844Z,6.38
2018-12-29T10:29:41.816Z,6.34
2018-12-29T10:32:14.193Z,6.37
2018-12-29T10:34:46.629Z,6.33
2018-12-29T10:37:19.990Z,6.30
2018-12-29T10:39:57.341Z,6.30
2018-12-29T10:42:30.767Z,6.23
2018-12-29T10:45:03.177Z,6.31
2018-12-29T10:47:37.233Z,6.34
2018-12-29T10:50:13.549Z,6.30
2018-12-29T10:52:52.466Z,6.32
2018-12-29T10:55:25.817Z,6.26
2018-12-29T10:58:07.814Z,6.22
2018-12-29T11:00:40.717Z,6.25
2018-12-29T11:03:23.029Z,6.30
2018-12-29T11:05:56.151Z,6.36
2018-12-29T11:08:30.294Z,6.40
2018-12-29T11:11:03.137Z,6.38
2018-12-29T11:13:41.054Z,6.59
2018-12-29T11:16:23.687Z,6.52
2018-12-29T11:18:59.285Z,6.52
2018-12-29T11:21:39.193Z,6.51
2018-12-29T11:24:13.910Z,6.52
2018-12-29T11:26:47.224Z,6.60
2018-12-29T11:29:27.339Z,6.62
2018-12-29T11:45:20.013Z,7.22
2018-12-29T11:48:53.559Z,7.32
2018-12-29T11:51:32.844Z,7.33
2018-12-29T11:54:05.893Z,7.37
2018-12-29T11:56:54.846Z,7.36
2018-12-29T11:59:40.978Z,7.32
2018-12-29T12:02:33.995Z,7.31
2018-12-29T12:08:02.823Z,7.28
2018-12-29T12:10:48.938Z,7.26
2018-12-29T12:13:57.746Z,7.20
2018-12-29T12:19:59.774Z,7.32
2018-12-29T12:26:11.859Z,7.38
2018-12-29T12:29:04.715Z,7.44
2018-12-29T12:31:38.943Z,7.44
2018-12-29T12:34:41.924Z,7.37
2018-12-29T12:40:22.413Z,7.45
2018-12-29T12:43:30.827Z,7.45
2018-12-29T12:49:30.114Z,7.46
2018-12-29T12:52:13.740Z,7.38
2018-12-29T12:58:01.260Z,7.35
2018-12-29T13:03:32.335Z,7.28
2018-12-29T13:06:14.646Z,7.31
2018-12-29T13:16:06.149Z,7.30
2018-12-29T13:18:57.177Z,7.35
2018-12-29T13:21:51.136Z,7.38
2018-12-29T13:24:50.045Z,7.46
2018-12-29T13:27:38.442Z,7.43
2018-12-29T13:30:15.428Z,7.44
2018-12-29T13:35:38.878Z,7.48
2018-12-29T13:41:45.374Z,7.52
2018-12-29T13:47:06.101Z,7.63
2018-12-29T13:49:50.999Z,7.71
2018-12-29T13:52:41.819Z,7.61
2018-12-29T13:55:31.618Z,7.57
2018-12-29T13:58:10.217Z,7.61
2018-12-29T14:00:50.204Z,7.62
2018-12-29T14:03:46.138Z,7.60
2018-12-29T14:06:25.254Z,7.47
2018-12-29T14:09:09.144Z,7.38
2018-12-29T14:14:33.480Z,7.42
2018-12-29T14:17:40.701Z,7.50
2018-12-29T14:20:19.601Z,7.35
2018-12-29T14:23:12.863Z,7.36
2018-12-29T14:25:50.956Z,7.31
2018-12-29T14:28:24.132Z,7.20
2018-12-29T14:30:57.009Z,7.11
2018-12-29T14:33:30.037Z,7.07
2018-12-29T14:36:02.765Z,7.03
2018-12-29T14:38:36.725Z,6.96
2018-12-29T14:41:10.282Z,7.01
2018-12-29T14:43:55.515Z,7.08
2018-12-29T14:46:28.733Z,6.97
2018-12-29T14:49:01.507Z,7.01
2018-12-29T14:51:34.945Z,7.01
2018-12-29T14:54:07.805Z,6.92
2018-12-29T14:56:40.926Z,6.90
2018-12-29T14:59:18.973Z,7.08
2018-12-29T15:01:56.901Z,7.00
2018-12-29T15:04:34.169Z,6.97
2018-12-29T15:07:07.100Z,6.94
2018-12-29T15:09:39.968Z,6.95
2018-12-29T15:12:14.407Z,6.93
2018-12-29T15:14:47.229Z,6.93
2018-12-29T15:17:26.534Z,6.96
2018-12-29T15:20:00.166Z,6.95
2018-12-29T15:22:34.948Z,6.94
2018-12-29T15:25:07.765Z,6.95
2018-12-29T15:27:41.395Z,7.04
2018-12-29T15:30:15.646Z,7.07
2018-12-29T15:32:51.733Z,7.04
2018-12-29T15:35:24.922Z,6.96
2018-12-29T15:37:57.942Z,7.00
2018-12-29T15:40:32.354Z,6.99
2018-12-29T15:45:44.529Z,6.99
2018-12-29T15:48:17.589Z,6.99
2018-12-29T15:50:50.605Z,7.11
2018-12-29T15:53:26.290Z,7.00
2018-12-29T15:56:01.485Z,7.00
2018-12-29T15:58:37.985Z,7.00
2018-12-29T16:01:14.269Z,6.98
2018-12-29T16:03:49.297Z,6.96
2018-12-29T16:06:23.765Z,7.04
2018-12-29T16:09:04.829Z,6.98
2018-12-29T16:11:40.385Z,6.91
2018-12-29T16:14:15.789Z,6.99
2018-12-29T16:16:55.125Z,6.98
2018-12-29T16:24:37.169Z,7.14
2018-12-29T16:27:16.512Z,7.04
2018-12-29T16:29:53.353Z,7.20
2018-12-29T16:32:25.833Z,7.19
2018-12-29T16:35:10.578Z,7.11
2018-12-29T16:37:52.533Z,7.07
2018-12-29T16:40:33.805Z,7.22
2018-12-29T16:43:28.776Z,7.14
2018-12-29T16:46:12.789Z,7.19
2018-12-29T16:48:51.254Z,7.29
2018-12-29T16:51:27.867Z,7.20
2018-12-29T16:54:05.773Z,7.22
2018-12-29T16:56:38.786Z,7.24
2018-12-29T16:59:12.459Z,7.27
2018-12-29T17:01:46.710Z,7.25
2018-12-29T17:04:19.505Z,7.36
2018-12-29T17:06:52.587Z,7.38
2018-12-29T17:09:25.549Z,7.39
2018-12-29T17:11:59.300Z,7.42
2018-12-29T17:14:33.233Z,7.42
2018-12-29T17:17:07.255Z,7.48
2018-12-29T17:19:43.316Z,7.57
2018-12-29T17:22:19.508Z,7.49
2018-12-29T17:24:55.367Z,7.59
2018-12-29T17:30:32.049Z,7.55
2018-12-29T17:33:25.877Z,7.73
2018-12-29T17:36:17.511Z,7.77
2018-12-29T17:38:55.385Z,7.80
2018-12-29T17:41:28.576Z,7.77
2018-12-29T17:44:01.187Z,7.83
2018-12-29T17:46:43.257Z,7.81
2018-12-29T17:51:57.258Z,7.87
2018-12-29T17:54:29.894Z,7.92
2018-12-29T17:57:06.734Z,8.02
2018-12-29T17:59:39.633Z,8.11
2018-12-29T18:02:12.518Z,8.08
2018-12-29T18:04:45.345Z,8.17
2018-12-29T18:07:18.345Z,8.21
2018-12-29T18:09:57.164Z,8.25
2018-12-29T18:12:27.429Z,8.26
2018-12-29T18:15:00.292Z,8.26
2018-12-29T18:17:33.633Z,8.28
2018-12-29T18:20:06.773Z,8.35
2018-12-29T18:22:43.844Z,8.36
2018-12-29T18:25:16.585Z,8.41
2018-12-29T18:27:50.152Z,8.40
2018-12-29T18:30:23.681Z,8.44
2018-12-29T18:32:58.310Z,8.58
2018-12-29T18:35:32.529Z,8.67
2018-12-29T18:38:09.749Z,8.68
2018-12-29T18:40:49.491Z,8.73
2018-12-29T18:43:25.634Z,8.74
2018-12-29T18:46:05.502Z,8.72
2018-12-29T18:48:38.597Z,8.81
2018-12-29T18:51:12.497Z,8.89
2018-12-29T18:53:45.789Z,8.88
2018-12-29T18:56:18.719Z,8.89
2018-12-29T18:59:08.726Z,8.96
2018-12-29T19:01:57.822Z,8.91
2018-12-29T19:04:33.749Z,9.04
2018-12-29T19:07:19.957Z,9.07
2018-12-29T19:09:53.738Z,9.02
2018-12-29T19:12:27.062Z,8.99
2018-12-29T19:15:07.085Z,9.09
2018-12-29T19:17:45.893Z,9.21
2018-12-29T19:20:20.346Z,9.19
2018-12-29T19:23:11.636Z,9.18
2018-12-29T19:25:47.964Z,9.25
2018-12-29T19:28:21.046Z,9.36
2018-12-29T19:33:39.583Z,9.45
2018-12-29T19:36:12.753Z,9.50
2018-12-29T19:38:45.752Z,9.58
2018-12-29T19:41:23.704Z,9.46
2018-12-29T19:43:57.844Z,9.41
2018-12-29T19:46:31.801Z,9.35
2018-12-29T19:49:10.541Z,9.43
2018-12-29T19:52:02.608Z,9.33
2018-12-29T19:54:39.731Z,9.18
2018-12-29T19:57:15.644Z,9.09
2018-12-29T19:59:54.981Z,9.06
2018-12-29T20:05:43.818Z,8.99
2018-12-29T20:08:19.637Z,8.93
2018-12-29T20:10:54.598Z,8.79
2018-12-29T20:13:28.629Z,8.73
2018-12-29T20:16:03.497Z,8.81
2018-12-29T20:18:50.097Z,8.77
2018-12-29T20:21:24.129Z,8.77
2018-12-29T20:23:56.998Z,8.67
2018-12-29T20:26:29.801Z,8.64
2018-12-29T20:29:02.958Z,8.61
2018-12-29T20:31:36.701Z,8.56
2018-12-29T20:34:17.702Z,8.24
2018-12-29T20:36:53.149Z,8.07
2018-12-29T20:42:34.378Z,7.90
2018-12-29T20:48:46.680Z,7.83
2018-12-29T20:51:19.717Z,7.81
2018-12-29T20:53:58.187Z,7.67
2018-12-29T20:56:31.898Z,7.61
2018-12-29T20:59:05.874Z,7.51
2018-12-29T21:01:38.717Z,7.53
2018-12-29T21:04:11.882Z,7.49
2018-12-29T21:06:45.624Z,7.41
2018-12-29T21:09:18.748Z,7.35
2018-12-29T21:11:53.203Z,7.40
2018-12-29T21:14:30.861Z,7.36
2018-12-29T21:17:04.541Z,7.41
2018-12-29T21:19:39.073Z,7.48
2018-12-29T21:22:12.925Z,7.60
2018-12-29T21:24:46.605Z,7.69
2018-12-29T21:27:21.225Z,7.79
2018-12-29T21:30:03.283Z,7.90
2018-12-29T21:32:46.830Z,7.78
2018-12-29T21:53:32.963Z,8.23
2018-12-29T21:56:06.797Z,8.24
2018-12-29T21:58:45.425Z,8.35
2018-12-29T22:01:18.782Z,8.33
2018-12-29T22:03:52.012Z,8.33
2018-12-29T22:06:24.858Z,8.42
2018-12-29T22:08:57.564Z,8.41
2018-12-29T22:11:30.594Z,8.46
2018-12-29T22:14:03.585Z,8.39
2018-12-29T22:16:36.504Z,8.46
2018-12-29T22:19:09.719Z,8.45
2018-12-29T22:21:42.777Z,8.50
2018-12-29T22:24:16.884Z,8.51
2018-12-29T22:26:51.562Z,8.55
2018-12-29T22:29:24.997Z,8.55
2018-12-29T22:31:58.297Z,8.65
2018-12-29T22:34:30.897Z,8.62
2018-12-29T22:37:08.013Z,8.65
2018-12-29T22:39:41.098Z,8.60
2018-12-29T22:42:14.474Z,8.68
2018-12-29T22:44:47.266Z,8.70
2018-12-29T22:47:20.273Z,8.70
2018-12-29T22:49:53.498Z,8.75
2018-12-29T22:52:27.508Z,8.68
2018-12-29T22:55:02.633Z,8.72
2018-12-29T22:57:36.255Z,8.72
2018-12-29T23:00:14.493Z,8.67
2018-12-29T23:02:47.333Z,8.75
2018-12-29T23:05:20.153Z,8.70
2018-12-29T23:07:53.093Z,8.75
2018-12-29T23:10:26.545Z,8.77
2018-12-29T23:12:59.097Z,8.80
2018-12-29T23:15:32.118Z,8.79
2018-12-29T23:18:05.578Z,8.78
2018-12-29T23:20:38.986Z,8.84
2018-12-29T23:23:12.214Z,8.81
2018-12-29T23:25:45.857Z,8.61
2018-12-29T23:28:18.393Z,8.79
2018-12-29T23:30:51.849Z,8.77
2018-12-29T23:33:24.549Z,8.79
2018-12-29T23:35:57.489Z,8.73
2018-12-29T23:38:30.493Z,8.78
2018-12-29T23:41:03.897Z,8.69
2018-12-29T23:43:37.129Z,8.68
2018-12-29T23:46:10.051Z,8.70
2018-12-29T23:48:42.869Z,8.70
2018-12-29T23:51:16.409Z,8.68
